sensor_id;sensor_type;location;lat;lon;timestamp;pressure;altitude;pressure_sealevel;temperature;humidity
36788;BME280;22738;45.560;9.434;2023-03-13T00:03:19;99996.63;;;10.21;100.00
36788;BME280;22738;45.560;9.434;2023-03-13T00:10:00;99986.72;;;10.13;100.00
36788;BME280;22738;45.560;9.434;2023-03-13T00:16:41;99969.03;;;10.05;100.00
36788;BME280;22738;45.560;9.434;2023-03-13T00:23:23;99975.88;;;9.92;100.00
36788;BME280;22738;45.560;9.434;2023-03-13T00:30:04;99970.81;;;9.75;100.00
36788;BME280;22738;45.560;9.434;2023-03-13T00:36:45;99961.94;;;9.65;100.00
36788;BME280;22738;45.560;9.434;2023-03-13T00:43:26;99966.00;;;9.69;100.00
36788;BME280;22738;45.560;9.434;2023-03-13T00:50:08;99992.84;;;9.82;100.00
36788;BME280;22738;45.560;9.434;2023-03-13T00:56:49;100001.09;;;9.89;100.00
36788;BME280;22738;45.560;9.434;2023-03-13T01:03:30;100025.78;;;9.94;100.00
36788;BME280;22738;45.560;9.434;2023-03-13T01:10:11;100012.75;;;9.66;100.00
36788;BME280;22738;45.560;9.434;2023-03-13T01:16:52;100006.47;;;9.56;100.00
36788;BME280;22738;45.560;9.434;2023-03-13T01:23:33;100020.66;;;9.49;100.00
36788;BME280;22738;45.560;9.434;2023-03-13T01:30:14;100008.34;;;9.23;100.00
36788;BME280;22738;45.560;9.434;2023-03-13T01:36:56;100003.09;;;9.09;100.00
36788;BME280;22738;45.560;9.434;2023-03-13T01:43:37;100004.69;;;8.96;100.00
36788;BME280;22738;45.560;9.434;2023-03-13T01:50:19;100009.69;;;8.99;100.00
36788;BME280;22738;45.560;9.434;2023-03-13T02:04:04;100004.50;;;8.68;100.00
36788;BME280;22738;45.560;9.434;2023-03-13T02:11:03;100016.75;;;8.80;100.00
36788;BME280;22738;45.560;9.434;2023-03-13T02:17:46;100015.84;;;8.81;100.00
36788;BME280;22738;45.560;9.434;2023-03-13T02:24:39;100014.00;;;9.14;100.00
36788;BME280;22738;45.560;9.434;2023-03-13T02:31:24;100028.03;;;9.10;100.00
36788;BME280;22738;45.560;9.434;2023-03-13T02:38:07;100020.88;;;8.99;100.00
36788;BME280;22738;45.560;9.434;2023-03-13T02:44:50;100024.84;;;9.05;100.00
36788;BME280;22738;45.560;9.434;2023-03-13T02:51:36;100014.50;;;9.05;100.00
36788;BME280;22738;45.560;9.434;2023-03-13T02:58:23;100011.44;;;9.14;100.00
36788;BME280;22738;45.560;9.434;2023-03-13T03:05:05;99997.16;;;9.07;100.00
36788;BME280;22738;45.560;9.434;2023-03-13T03:11:46;99993.41;;;9.12;100.00
36788;BME280;22738;45.560;9.434;2023-03-13T03:18:29;100014.47;;;9.36;100.00
36788;BME280;22738;45.560;9.434;2023-03-13T03:25:12;100026.66;;;9.50;100.00
36788;BME280;22738;45.560;9.434;2023-03-13T03:31:54;100035.47;;;9.61;100.00
36788;BME280;22738;45.560;9.434;2023-03-13T03:38:35;100021.31;;;9.53;100.00
36788;BME280;22738;45.560;9.434;2023-03-13T03:45:17;100027.84;;;9.44;100.00
36788;BME280;22738;45.560;9.434;2023-03-13T03:51:59;100034.34;;;9.51;100.00
36788;BME280;22738;45.560;9.434;2023-03-13T03:58:46;100028.50;;;9.48;100.00
36788;BME280;22738;45.560;9.434;2023-03-13T04:05:32;100048.69;;;9.41;100.00
36788;BME280;22738;45.560;9.434;2023-03-13T04:12:14;100060.47;;;9.47;100.00
36788;BME280;22738;45.560;9.434;2023-03-13T04:18:59;100039.28;;;9.40;100.00
36788;BME280;22738;45.560;9.434;2023-03-13T04:25:41;100053.03;;;9.41;100.00
36788;BME280;22738;45.560;9.434;2023-03-13T04:32:26;100045.78;;;9.47;100.00
36788;BME280;22738;45.560;9.434;2023-03-13T04:39:22;100052.13;;;9.42;100.00
36788;BME280;22738;45.560;9.434;2023-03-13T04:46:24;100043.19;;;9.47;100.00
36788;BME280;22738;45.560;9.434;2023-03-13T04:53:26;100029.31;;;9.48;100.00
36788;BME280;22738;45.560;9.434;2023-03-13T05:00:25;100017.66;;;9.41;100.00
36788;BME280;22738;45.560;9.434;2023-03-13T05:07:38;100032.66;;;9.50;100.00
36788;BME280;22738;45.560;9.434;2023-03-13T05:14:48;100035.47;;;9.61;100.00
36788;BME280;22738;45.560;9.434;2023-03-13T05:22:08;100052.16;;;9.71;100.00
36788;BME280;22738;45.560;9.434;2023-03-13T05:29:08;100067.69;;;9.71;100.00
36788;BME280;22738;45.560;9.434;2023-03-13T05:36:09;100064.75;;;9.77;100.00
36788;BME280;22738;45.560;9.434;2023-03-13T05:43:20;100070.38;;;9.70;100.00
36788;BME280;22738;45.560;9.434;2023-03-13T05:50:21;100063.78;;;9.64;100.00
36788;BME280;22738;45.560;9.434;2023-03-13T05:57:15;100064.06;;;9.44;100.00
36788;BME280;22738;45.560;9.434;2023-03-13T06:04:09;100060.44;;;9.62;100.00
36788;BME280;22738;45.560;9.434;2023-03-13T06:10:52;100062.34;;;9.74;100.00
36788;BME280;22738;45.560;9.434;2023-03-13T06:17:34;100054.81;;;9.85;100.00
36788;BME280;22738;45.560;9.434;2023-03-13T06:24:16;100059.63;;;9.91;100.00
36788;BME280;22738;45.560;9.434;2023-03-13T06:31:05;100056.44;;;9.86;100.00
36788;BME280;22738;45.560;9.434;2023-03-13T06:37:46;100045.69;;;10.24;100.00
36788;BME280;22738;45.560;9.434;2023-03-13T06:44:27;100055.88;;;10.69;100.00
36788;BME280;22738;45.560;9.434;2023-03-13T06:51:12;100059.94;;;11.01;100.00
36788;BME280;22738;45.560;9.434;2023-03-13T06:57:54;100063.84;;;11.35;100.00
36788;BME280;22738;45.560;9.434;2023-03-13T07:04:35;100056.78;;;11.90;100.00
36788;BME280;22738;45.560;9.434;2023-03-13T07:11:16;100060.78;;;12.21;100.00
36788;BME280;22738;45.560;9.434;2023-03-13T07:17:57;100076.31;;;14.84;100.00
36788;BME280;22738;45.560;9.434;2023-03-13T07:24:38;100100.81;;;18.12;91.99
36788;BME280;22738;45.560;9.434;2023-03-13T07:31:20;100113.50;;;17.88;80.61
36788;BME280;22738;45.560;9.434;2023-03-13T07:38:03;100116.78;;;18.67;72.43
36788;BME280;22738;45.560;9.434;2023-03-13T07:44:44;100135.13;;;20.73;60.77
36788;BME280;22738;45.560;9.434;2023-03-13T07:51:25;100153.50;;;21.58;54.26
36788;BME280;22738;45.560;9.434;2023-03-13T07:58:07;100149.19;;;21.07;57.55
36788;BME280;22738;45.560;9.434;2023-03-13T08:04:51;100130.16;;;20.27;53.59
36788;BME280;22738;45.560;9.434;2023-03-13T08:11:32;100126.94;;;20.33;55.14
36788;BME280;22738;45.560;9.434;2023-03-13T08:18:14;100118.53;;;19.49;59.07
36788;BME280;22738;45.560;9.434;2023-03-13T08:24:55;100115.53;;;19.07;62.21
36788;BME280;22738;45.560;9.434;2023-03-13T08:31:47;100117.66;;;18.58;64.73
36788;BME280;22738;45.560;9.434;2023-03-13T08:38:29;100104.25;;;17.25;78.83
36788;BME280;22738;45.560;9.434;2023-03-13T08:45:12;100099.53;;;16.38;92.16
36788;BME280;22738;45.560;9.434;2023-03-13T08:51:53;100090.41;;;15.48;100.00
36788;BME280;22738;45.560;9.434;2023-03-13T08:58:35;100096.13;;;14.76;100.00
36788;BME280;22738;45.560;9.434;2023-03-13T09:05:16;100104.41;;;14.59;100.00
36788;BME280;22738;45.560;9.434;2023-03-13T09:11:57;100120.75;;;14.50;100.00
36788;BME280;22738;45.560;9.434;2023-03-13T09:18:39;100121.97;;;14.79;100.00
36788;BME280;22738;45.560;9.434;2023-03-13T09:25:20;100116.78;;;15.23;100.00
36788;BME280;22738;45.560;9.434;2023-03-13T09:32:01;100113.31;;;15.34;100.00
36788;BME280;22738;45.560;9.434;2023-03-13T09:38:43;100135.91;;;15.13;100.00
36788;BME280;22738;45.560;9.434;2023-03-13T09:45:39;100112.75;;;15.84;100.00
36788;BME280;22738;45.560;9.434;2023-03-13T09:52:28;100106.94;;;15.81;100.00
36788;BME280;22738;45.560;9.434;2023-03-13T09:59:18;100102.41;;;16.35;100.00
36788;BME280;22738;45.560;9.434;2023-03-13T10:06:05;100094.69;;;16.54;100.00
36788;BME280;22738;45.560;9.434;2023-03-13T10:12:56;100094.69;;;17.54;100.00
36788;BME280;22738;45.560;9.434;2023-03-13T10:19:43;100095.38;;;17.56;93.94
36788;BME280;22738;45.560;9.434;2023-03-13T10:26:28;100082.88;;;17.89;92.50
36788;BME280;22738;45.560;9.434;2023-03-13T10:39:51;100069.63;;;17.71;94.93
36788;BME280;22738;45.560;9.434;2023-03-13T10:46:35;100075.41;;;18.03;90.76
36788;BME280;22738;45.560;9.434;2023-03-13T11:00:30;100035.91;;;18.14;82.36
36788;BME280;22738;45.560;9.434;2023-03-13T11:07:15;100054.97;;;18.07;94.44
36788;BME280;22738;45.560;9.434;2023-03-13T11:14:08;100049.19;;;18.03;90.25
36788;BME280;22738;45.560;9.434;2023-03-13T11:20:49;100035.94;;;17.57;93.93
36788;BME280;22738;45.560;9.434;2023-03-13T11:27:41;100035.53;;;17.61;92.56
36788;BME280;22738;45.560;9.434;2023-03-13T11:34:39;100024.31;;;18.07;82.84
36788;BME280;22738;45.560;9.434;2023-03-13T11:55:17;99992.00;;;17.97;83.99
36788;BME280;22738;45.560;9.434;2023-03-13T12:08:48;99960.66;;;18.51;84.89
36788;BME280;22738;45.560;9.434;2023-03-13T12:15:37;99952.31;;;17.63;87.43
36788;BME280;22738;45.560;9.434;2023-03-13T12:22:34;99946.56;;;18.06;83.69
36788;BME280;22738;45.560;9.434;2023-03-13T12:43:17;99910.59;;;17.89;92.40
36788;BME280;22738;45.560;9.434;2023-03-13T12:57:37;99879.34;;;18.05;89.68
36788;BME280;22738;45.560;9.434;2023-03-13T13:04:24;99879.03;;;18.08;87.40
36788;BME280;22738;45.560;9.434;2023-03-13T13:18:27;99845.34;;;18.13;92.50
36788;BME280;22738;45.560;9.434;2023-03-13T13:38:38;99840.53;;;17.72;100.00
36788;BME280;22738;45.560;9.434;2023-03-13T14:06:14;99790.44;;;18.02;100.00
36788;BME280;22738;45.560;9.434;2023-03-13T14:12:57;99789.94;;;17.99;100.00
36788;BME280;22738;45.560;9.434;2023-03-13T14:19:41;99772.09;;;17.75;100.00
36788;BME280;22738;45.560;9.434;2023-03-13T14:26:28;99772.88;;;17.85;100.00
36788;BME280;22738;45.560;9.434;2023-03-13T14:33:09;99766.56;;;17.78;100.00
36788;BME280;22738;45.560;9.434;2023-03-13T14:39:51;99756.97;;;17.59;100.00
36788;BME280;22738;45.560;9.434;2023-03-13T14:46:39;99756.97;;;17.50;100.00
36788;BME280;22738;45.560;9.434;2023-03-13T14:53:21;99749.63;;;17.17;100.00
36788;BME280;22738;45.560;9.434;2023-03-13T15:00:42;99733.09;;;17.06;100.00
36788;BME280;22738;45.560;9.434;2023-03-13T15:07:47;99737.81;;;16.93;100.00
36788;BME280;22738;45.560;9.434;2023-03-13T15:14:43;99741.16;;;16.76;100.00
36788;BME280;22738;45.560;9.434;2023-03-13T15:21:28;99736.47;;;16.70;100.00
36788;BME280;22738;45.560;9.434;2023-03-13T15:28:15;99721.84;;;16.49;100.00
36788;BME280;22738;45.560;9.434;2023-03-13T15:34:56;99708.06;;;16.37;100.00
36788;BME280;22738;45.560;9.434;2023-03-13T15:41:38;99709.03;;;16.36;100.00
36788;BME280;22738;45.560;9.434;2023-03-13T15:48:25;99691.69;;;16.35;100.00
36788;BME280;22738;45.560;9.434;2023-03-13T15:55:10;99701.06;;;16.28;100.00
36788;BME280;22738;45.560;9.434;2023-03-13T16:01:51;99682.75;;;16.28;100.00
36788;BME280;22738;45.560;9.434;2023-03-13T16:08:32;99669.25;;;16.32;100.00
36788;BME280;22738;45.560;9.434;2023-03-13T16:15:13;99666.06;;;16.29;100.00
36788;BME280;22738;45.560;9.434;2023-03-13T16:21:54;99661.94;;;15.98;100.00
36788;BME280;22738;45.560;9.434;2023-03-13T16:28:35;99660.41;;;15.86;100.00
36788;BME280;22738;45.560;9.434;2023-03-13T16:35:16;99663.81;;;15.77;100.00
36788;BME280;22738;45.560;9.434;2023-03-13T16:41:58;99662.00;;;15.67;100.00
36788;BME280;22738;45.560;9.434;2023-03-13T16:48:40;99652.66;;;15.55;100.00
36788;BME280;22738;45.560;9.434;2023-03-13T16:55:22;99642.47;;;15.52;100.00
36788;BME280;22738;45.560;9.434;2023-03-13T17:02:16;99634.13;;;15.38;100.00
36788;BME280;22738;45.560;9.434;2023-03-13T17:08:57;99624.94;;;15.43;100.00
36788;BME280;22738;45.560;9.434;2023-03-13T17:15:38;99626.44;;;15.36;100.00
36788;BME280;22738;45.560;9.434;2023-03-13T17:22:19;99632.97;;;15.21;100.00
36788;BME280;22738;45.560;9.434;2023-03-13T17:29:01;99636.81;;;15.17;100.00
36788;BME280;22738;45.560;9.434;2023-03-13T17:35:43;99623.34;;;15.12;100.00
36788;BME280;22738;45.560;9.434;2023-03-13T17:42:24;99620.53;;;15.04;100.00
36788;BME280;22738;45.560;9.434;2023-03-13T17:49:05;99614.91;;;14.99;100.00
36788;BME280;22738;45.560;9.434;2023-03-13T17:55:47;99619.41;;;14.97;100.00
36788;BME280;22738;45.560;9.434;2023-03-13T18:02:28;99593.84;;;14.91;100.00
36788;BME280;22738;45.560;9.434;2023-03-13T18:09:16;99591.63;;;14.86;100.00
36788;BME280;22738;45.560;9.434;2023-03-13T18:15:57;99589.66;;;14.79;100.00
36788;BME280;22738;45.560;9.434;2023-03-13T18:22:39;99581.09;;;14.67;100.00
36788;BME280;22738;45.560;9.434;2023-03-13T18:29:23;99573.91;;;14.60;100.00
36788;BME280;22738;45.560;9.434;2023-03-13T18:36:18;99546.44;;;14.56;100.00
36788;BME280;22738;45.560;9.434;2023-03-13T18:42:59;99548.22;;;14.55;100.00
36788;BME280;22738;45.560;9.434;2023-03-13T18:49:40;99551.13;;;14.62;100.00
36788;BME280;22738;45.560;9.434;2023-03-13T18:56:23;99550.25;;;14.52;100.00
36788;BME280;22738;45.560;9.434;2023-03-13T19:03:06;99552.50;;;14.36;100.00
36788;BME280;22738;45.560;9.434;2023-03-13T19:09:47;99539.50;;;14.24;100.00
36788;BME280;22738;45.560;9.434;2023-03-13T19:23:10;99554.19;;;14.25;100.00
36788;BME280;22738;45.560;9.434;2023-03-13T19:29:52;99535.66;;;14.40;100.00
36788;BME280;22738;45.560;9.434;2023-03-13T19:36:38;99525.53;;;14.46;100.00
36788;BME280;22738;45.560;9.434;2023-03-13T19:43:20;99512.66;;;14.54;100.00
36788;BME280;22738;45.560;9.434;2023-03-13T19:50:02;99493.66;;;14.43;100.00
36788;BME280;22738;45.560;9.434;2023-03-13T19:56:45;99484.00;;;14.34;100.00
36788;BME280;22738;45.560;9.434;2023-03-13T20:03:28;99485.09;;;14.31;100.00
36788;BME280;22738;45.560;9.434;2023-03-13T20:10:09;99499.78;;;14.11;100.00
36788;BME280;22738;45.560;9.434;2023-03-13T20:16:50;99507.22;;;13.95;100.00
36788;BME280;22738;45.560;9.434;2023-03-13T20:23:32;99514.72;;;13.89;100.00
36788;BME280;22738;45.560;9.434;2023-03-13T20:30:16;99504.59;;;13.95;100.00
36788;BME280;22738;45.560;9.434;2023-03-13T20:36:57;99501.03;;;13.55;100.00
36788;BME280;22738;45.560;9.434;2023-03-13T20:43:39;99498.81;;;12.97;100.00
36788;BME280;22738;45.560;9.434;2023-03-13T20:50:21;99496.22;;;12.74;100.00
36788;BME280;22738;45.560;9.434;2023-03-13T20:57:03;99485.59;;;12.44;100.00
36788;BME280;22738;45.560;9.434;2023-03-13T21:03:44;99472.81;;;12.52;100.00
36788;BME280;22738;45.560;9.434;2023-03-13T21:10:25;99455.91;;;12.36;100.00
36788;BME280;22738;45.560;9.434;2023-03-13T21:17:06;99454.41;;;12.33;100.00
36788;BME280;22738;45.560;9.434;2023-03-13T21:23:50;99442.78;;;11.93;100.00
36788;BME280;22738;45.560;9.434;2023-03-13T21:30:32;99444.47;;;11.94;100.00
36788;BME280;22738;45.560;9.434;2023-03-13T21:37:14;99437.63;;;12.15;100.00
36788;BME280;22738;45.560;9.434;2023-03-13T21:43:57;99400.03;;;11.86;100.00
36788;BME280;22738;45.560;9.434;2023-03-13T21:50:38;99378.56;;;11.73;100.00
36788;BME280;22738;45.560;9.434;2023-03-13T21:57:19;99369.78;;;11.63;100.00
36788;BME280;22738;45.560;9.434;2023-03-13T22:04:00;99356.56;;;11.66;100.00
36788;BME280;22738;45.560;9.434;2023-03-13T22:10:46;99353.03;;;11.67;100.00
36788;BME280;22738;45.560;9.434;2023-03-13T22:17:28;99335.09;;;11.53;100.00
36788;BME280;22738;45.560;9.434;2023-03-13T22:24:10;99307.72;;;11.48;100.00
36788;BME280;22738;45.560;9.434;2023-03-13T22:30:51;99301.31;;;11.19;100.00
36788;BME280;22738;45.560;9.434;2023-03-13T22:37:32;99285.03;;;11.17;100.00
36788;BME280;22738;45.560;9.434;2023-03-13T22:44:13;99264.88;;;11.21;100.00
36788;BME280;22738;45.560;9.434;2023-03-13T22:51:05;99252.47;;;11.24;100.00
36788;BME280;22738;45.560;9.434;2023-03-13T22:57:46;99237.16;;;11.21;100.00
36788;BME280;22738;45.560;9.434;2023-03-13T23:04:27;99225.97;;;11.21;100.00
36788;BME280;22738;45.560;9.434;2023-03-13T23:11:09;99194.69;;;11.67;100.00
36788;BME280;22738;45.560;9.434;2023-03-13T23:17:50;99167.09;;;11.55;100.00
36788;BME280;22738;45.560;9.434;2023-03-13T23:24:31;99151.06;;;11.27;100.00
36788;BME280;22738;45.560;9.434;2023-03-13T23:31:15;99152.00;;;11.48;100.00
36788;BME280;22738;45.560;9.434;2023-03-13T23:37:56;99120.47;;;11.64;100.00
36788;BME280;22738;45.560;9.434;2023-03-13T23:44:37;99094.72;;;11.29;100.00
36788;BME280;22738;45.560;9.434;2023-03-13T23:51:19;99087.63;;;11.31;100.00
36788;BME280;22738;45.560;9.434;2023-03-13T23:58:00;99089.94;;;11.57;100.00
